createdAt,value
2018-04-22T00:00:01.514Z,68.98
2018-04-22T00:02:29.060Z,69.08
2018-04-22T00:04:56.651Z,69.17
2018-04-22T00:07:24.237Z,68.95
2018-04-22T00:09:51.787Z,69.07
2018-04-22T00:12:19.323Z,69.21
2018-04-22T00:14:47.004Z,69.44
2018-04-22T00:17:14.601Z,69.61
2018-04-22T00:19:42.160Z,69.88
2018-04-22T00:22:09.888Z,70.07
2018-04-22T00:24:37.420Z,70.21
2018-04-22T00:27:04.956Z,70.00
2018-04-22T00:29:32.531Z,69.67
2018-04-22T00:32:00.069Z,69.47
2018-04-22T00:34:27.619Z,69.72
2018-04-22T00:36:55.332Z,69.82
2018-04-22T00:39:22.858Z,69.74
2018-04-22T00:41:50.413Z,69.75
2018-04-22T00:44:18.143Z,68.87
2018-04-22T00:46:45.681Z,68.40
2018-04-22T00:49:13.267Z,68.20
2018-04-22T00:51:40.921Z,68.74
2018-04-22T00:54:20.204Z,68.97
2018-04-22T00:56:47.961Z,69.10
2018-04-22T00:59:15.499Z,69.07
2018-04-22T01:01:43.035Z,69.11
2018-04-22T01:04:10.606Z,69.28
2018-04-22T01:06:38.155Z,69.45
2018-04-22T01:09:06.652Z,69.71
2018-04-22T01:11:34.501Z,70.01
2018-04-22T01:14:02.054Z,69.89
2018-04-22T01:16:29.607Z,69.74
2018-04-22T01:18:57.179Z,69.97
2018-04-22T01:21:24.719Z,70.27
2018-04-22T01:23:52.263Z,70.52
2018-04-22T01:26:19.833Z,70.88
2018-04-22T01:28:47.377Z,70.96
2018-04-22T01:31:14.938Z,70.98
2018-04-22T01:33:42.746Z,71.03
2018-04-22T01:36:10.292Z,70.93
2018-04-22T01:38:37.833Z,70.79
2018-04-22T01:41:05.372Z,71.01
2018-04-22T01:43:32.901Z,71.11
2018-04-22T01:46:00.692Z,71.09
2018-04-22T01:48:28.237Z,71.00
2018-04-22T01:50:55.787Z,71.16
2018-04-22T01:53:23.347Z,71.48
2018-04-22T01:55:50.881Z,71.72
2018-04-22T01:58:18.935Z,71.93
2018-04-22T02:00:46.601Z,72.09
2018-04-22T02:03:14.135Z,72.19
2018-04-22T02:05:41.663Z,72.52
2018-04-22T02:08:09.626Z,72.53
2018-04-22T02:10:37.160Z,72.53
2018-04-22T02:13:04.695Z,72.63
2018-04-22T02:15:32.288Z,72.76
2018-04-22T02:17:59.812Z,72.76
2018-04-22T02:20:27.335Z,72.89
2018-04-22T02:22:55.042Z,73.00
2018-04-22T02:25:22.572Z,73.15
2018-04-22T02:27:50.110Z,73.17
2018-04-22T02:30:17.686Z,73.24
2018-04-22T02:32:45.223Z,73.12
2018-04-22T02:35:12.766Z,73.37
2018-04-22T02:37:40.339Z,73.45
2018-04-22T02:40:07.876Z,73.34
2018-04-22T02:42:35.407Z,73.43
2018-04-22T02:45:02.979Z,73.53
2018-04-22T02:47:30.508Z,73.56
2018-04-22T02:49:58.050Z,73.64
2018-04-22T02:52:25.735Z,73.79
2018-04-22T02:54:53.258Z,73.97
2018-04-22T02:57:20.790Z,74.08
2018-04-22T02:59:49.331Z,74.04
2018-04-22T03:02:16.866Z,73.94
2018-04-22T03:04:44.401Z,73.60
2018-04-22T03:07:12.119Z,73.50
2018-04-22T03:09:39.657Z,73.51
2018-04-22T03:12:07.191Z,73.50
2018-04-22T03:14:34.787Z,73.42
2018-04-22T03:17:02.329Z,73.14
2018-04-22T03:19:29.872Z,73.09
2018-04-22T03:21:57.444Z,73.14
2018-04-22T03:24:24.978Z,72.90
2018-04-22T03:26:52.517Z,72.93
2018-04-22T03:29:20.068Z,72.77
2018-04-22T03:31:47.595Z,72.70
2018-04-22T03:34:15.128Z,72.92
2018-04-22T03:36:42.886Z,73.11
2018-04-22T03:39:10.418Z,73.21
2018-04-22T03:41:37.952Z,73.08
2018-04-22T03:44:05.508Z,72.83
2018-04-22T03:46:33.051Z,71.03
2018-04-22T03:49:00.583Z,67.96
2018-04-22T03:51:28.443Z,64.26
2018-04-22T03:53:55.980Z,60.40
2018-04-22T03:56:23.519Z,56.13
2018-04-22T03:58:51.092Z,52.32
2018-04-22T04:01:18.645Z,49.24
2018-04-22T04:03:46.190Z,45.99
2018-04-22T04:06:14.061Z,42.91
2018-04-22T04:08:41.601Z,41.37
2018-04-22T04:11:09.185Z,38.81
2018-04-22T04:13:36.902Z,36.53
2018-04-22T04:16:04.454Z,34.65
2018-04-22T04:21:51.208Z,31.49
2018-04-22T04:24:40.052Z,30.43
2018-04-22T04:27:23.255Z,29.50
2018-04-22T04:29:50.991Z,28.21
2018-04-22T04:32:18.598Z,28.68
2018-04-22T04:34:46.144Z,27.63
2018-04-22T04:37:14.668Z,27.40
2018-04-22T04:39:42.237Z,25.65
2018-04-22T04:42:09.785Z,25.44
2018-04-22T04:44:37.391Z,24.18
2018-04-22T04:47:04.939Z,23.77
2018-04-22T04:49:32.480Z,22.79
2018-04-22T04:52:00.150Z,21.68
2018-04-22T04:54:27.707Z,21.33
2018-04-22T04:56:55.262Z,21.40
2018-04-22T04:59:22.871Z,19.94
2018-04-22T05:01:50.423Z,20.99
2018-04-22T05:04:17.960Z,20.17
2018-04-22T05:06:45.552Z,19.72
2018-04-22T05:09:13.100Z,19.99
2018-04-22T05:11:40.631Z,19.08
2018-04-22T05:14:08.292Z,19.63
2018-04-22T05:16:35.880Z,19.09
2018-04-22T05:19:03.440Z,18.13
2018-04-22T05:21:31.130Z,18.19
2018-04-22T05:23:58.673Z,18.45
2018-04-22T05:26:26.241Z,18.30
2018-04-22T05:28:53.847Z,19.27
2018-04-22T05:31:21.396Z,19.93
2018-04-22T05:33:48.944Z,19.70
2018-04-22T05:36:16.682Z,21.36
2018-04-22T05:38:44.244Z,23.45
2018-04-22T05:41:11.783Z,23.49
2018-04-22T05:43:39.353Z,24.56
2018-04-22T05:46:06.917Z,25.63
2018-04-22T05:48:34.471Z,25.82
2018-04-22T05:51:02.151Z,27.89
2018-04-22T05:53:29.756Z,28.60
2018-04-22T05:55:57.307Z,29.12
2018-04-22T05:58:25.160Z,29.74
2018-04-22T06:00:52.723Z,29.68
2018-04-22T06:03:20.274Z,30.39
2018-04-22T06:05:48.014Z,30.99
2018-04-22T06:08:15.558Z,29.87
2018-04-22T06:10:43.099Z,31.96
2018-04-22T06:13:10.964Z,32.22
2018-04-22T06:15:38.508Z,31.74
2018-04-22T06:18:06.079Z,32.25
2018-04-22T06:20:33.802Z,32.82
2018-04-22T06:23:01.353Z,33.18
2018-04-22T06:25:28.914Z,33.93
2018-04-22T06:27:56.627Z,34.91
2018-04-22T06:30:24.175Z,35.17
2018-04-22T06:32:51.720Z,34.35
2018-04-22T06:35:19.409Z,33.62
2018-04-22T06:37:46.988Z,33.31
2018-04-22T06:40:14.588Z,34.33
2018-04-22T06:42:42.144Z,34.19
2018-04-22T06:45:09.680Z,33.83
2018-04-22T06:47:37.576Z,34.12
2018-04-22T06:50:05.137Z,32.90
2018-04-22T06:52:32.688Z,33.99
2018-04-22T06:55:00.576Z,33.72
2018-04-22T06:57:28.111Z,34.57
2018-04-22T06:59:55.660Z,35.53
2018-04-22T07:02:23.245Z,35.83
2018-04-22T07:04:50.792Z,35.54
2018-04-22T07:07:18.339Z,35.78
2018-04-22T07:09:45.953Z,35.79
2018-04-22T07:12:13.515Z,36.05
2018-04-22T07:14:41.079Z,36.21
2018-04-22T07:17:09.084Z,35.35
2018-04-22T07:19:36.637Z,34.06
2018-04-22T07:22:04.187Z,34.57
2018-04-22T07:24:31.776Z,34.33
2018-04-22T07:26:59.333Z,33.77
2018-04-22T07:29:26.896Z,34.29
2018-04-22T07:31:54.656Z,34.52
2018-04-22T07:34:22.244Z,34.57
2018-04-22T07:36:49.791Z,33.89
2018-04-22T07:39:17.482Z,33.70
2018-04-22T07:41:45.048Z,33.43
2018-04-22T07:44:12.591Z,34.57
2018-04-22T07:46:40.405Z,34.81
2018-04-22T07:49:07.969Z,34.48
2018-04-22T07:51:35.510Z,34.91
2018-04-22T07:54:03.205Z,34.12
2018-04-22T07:56:30.765Z,33.76
2018-04-22T07:58:58.310Z,33.89
2018-04-22T08:01:26.024Z,34.07
2018-04-22T08:03:53.567Z,35.15
2018-04-22T08:06:21.123Z,35.20
2018-04-22T08:08:48.704Z,34.11
2018-04-22T08:11:16.239Z,33.29
2018-04-22T08:13:43.790Z,33.82
2018-04-22T08:16:11.648Z,33.30
2018-04-22T08:18:39.193Z,32.96
2018-04-22T08:21:07.488Z,33.25
2018-04-22T08:23:35.055Z,33.26
2018-04-22T08:26:02.629Z,33.02
2018-04-22T08:28:30.242Z,33.90
2018-04-22T08:30:57.930Z,34.69
2018-04-22T08:33:25.472Z,34.47
2018-04-22T08:35:53.015Z,33.77
2018-04-22T08:38:20.652Z,33.14
2018-04-22T08:40:48.221Z,32.07
2018-04-22T08:43:15.774Z,32.28
2018-04-22T08:45:43.459Z,33.33
2018-04-22T08:48:11.012Z,32.70
2018-04-22T08:50:38.584Z,31.31
2018-04-22T08:53:06.149Z,31.31
2018-04-22T08:55:33.719Z,30.78
2018-04-22T08:58:01.256Z,30.38
2018-04-22T09:00:29.006Z,30.14
2018-04-22T09:02:56.565Z,30.74
2018-04-22T09:05:24.173Z,31.64
2018-04-22T09:07:51.776Z,31.88
2018-04-22T09:10:19.336Z,29.23
2018-04-22T09:12:46.870Z,30.62
2018-04-22T09:15:14.433Z,29.51
2018-04-22T09:17:42.000Z,29.43
2018-04-22T09:20:09.542Z,29.96
2018-04-22T09:22:37.136Z,29.12
2018-04-22T09:25:04.680Z,28.96
2018-04-22T09:27:32.238Z,30.19
2018-04-22T09:30:00.102Z,30.37
2018-04-22T09:32:27.662Z,30.96
2018-04-22T09:34:55.213Z,30.48
2018-04-22T09:37:22.935Z,30.67
2018-04-22T09:39:50.505Z,31.59
2018-04-22T09:42:18.067Z,32.46
2018-04-22T09:44:45.646Z,32.38
2018-04-22T09:47:13.185Z,32.84
2018-04-22T09:49:40.743Z,31.90
2018-04-22T09:52:08.305Z,32.39
2018-04-22T09:54:35.854Z,31.54
2018-04-22T09:57:03.381Z,31.54
2018-04-22T09:59:31.064Z,31.51
2018-04-22T10:01:58.614Z,31.14
2018-04-22T10:04:28.975Z,31.70
2018-04-22T10:06:56.700Z,30.66
2018-04-22T10:09:24.271Z,30.40
2018-04-22T10:11:51.818Z,29.39
2018-04-22T10:14:19.400Z,29.56
2018-04-22T10:16:46.951Z,29.45
2018-04-22T10:19:14.532Z,29.24
2018-04-22T10:21:42.255Z,28.33
2018-04-22T10:24:09.799Z,28.79
2018-04-22T10:26:37.349Z,28.28
2018-04-22T10:29:04.955Z,28.60
2018-04-22T10:31:32.505Z,27.42
2018-04-22T10:34:00.098Z,27.66
2018-04-22T10:36:27.988Z,28.38
2018-04-22T10:38:55.556Z,28.23
2018-04-22T10:41:23.127Z,27.74
2018-04-22T10:43:50.829Z,27.93
2018-04-22T10:46:18.380Z,26.73
2018-04-22T10:48:45.924Z,26.95
2018-04-22T10:51:13.653Z,27.86
2018-04-22T10:53:41.219Z,27.92
2018-04-22T10:56:08.779Z,27.13
2018-04-22T10:58:36.475Z,27.47
2018-04-22T11:01:04.040Z,27.46
2018-04-22T11:03:31.597Z,27.63
2018-04-22T11:05:59.189Z,27.36
2018-04-22T11:08:26.751Z,27.85
2018-04-22T11:10:54.342Z,28.17
2018-04-22T11:13:22.080Z,27.58
2018-04-22T11:15:49.617Z,27.84
2018-04-22T11:18:17.188Z,27.75
2018-04-22T11:20:44.759Z,28.11
2018-04-22T11:23:12.299Z,27.35
2018-04-22T11:25:39.868Z,27.59
2018-04-22T11:28:07.619Z,27.80
2018-04-22T11:30:35.167Z,28.38
2018-04-22T11:33:02.704Z,27.99
2018-04-22T11:35:30.448Z,28.49
2018-04-22T11:37:57.993Z,28.52
2018-04-22T11:40:25.542Z,27.57
2018-04-22T11:42:53.123Z,27.32
2018-04-22T11:45:20.656Z,26.78
2018-04-22T11:47:48.533Z,27.45
2018-04-22T11:50:16.084Z,27.62
2018-04-22T11:52:43.638Z,27.71
2018-04-22T11:55:11.203Z,27.51
2018-04-22T11:57:38.749Z,27.61
2018-04-22T12:00:06.300Z,27.92
2018-04-22T12:02:34.243Z,27.81
2018-04-22T12:05:01.804Z,27.22
2018-04-22T12:07:29.358Z,26.47
2018-04-22T12:09:57.088Z,27.01
2018-04-22T12:12:24.644Z,27.36
2018-04-22T12:14:52.212Z,27.86
2018-04-22T12:17:19.948Z,26.92
2018-04-22T12:19:47.515Z,26.62
2018-04-22T12:22:15.085Z,26.86
2018-04-22T12:24:42.703Z,27.55
2018-04-22T12:27:10.264Z,26.68
2018-04-22T12:29:37.841Z,27.49
2018-04-22T12:32:05.439Z,26.97
2018-04-22T12:34:32.988Z,26.27
2018-04-22T12:37:00.532Z,26.36
2018-04-22T12:39:28.256Z,26.11
2018-04-22T12:41:55.804Z,26.69
2018-04-22T12:44:23.359Z,26.79
2018-04-22T12:46:50.957Z,26.88
2018-04-22T12:49:18.544Z,26.21
2018-04-22T12:51:46.087Z,26.28
2018-04-22T12:54:13.683Z,26.32
2018-04-22T12:56:41.216Z,26.52
2018-04-22T12:59:08.778Z,26.67
2018-04-22T13:01:36.375Z,25.56
2018-04-22T13:04:03.947Z,24.77
2018-04-22T13:06:31.491Z,25.09
2018-04-22T13:08:59.100Z,25.80
2018-04-22T13:11:26.644Z,26.23
2018-04-22T13:13:54.179Z,26.28
2018-04-22T13:16:22.028Z,25.50
2018-04-22T13:18:49.571Z,25.75
2018-04-22T13:21:17.143Z,25.46
2018-04-22T13:23:44.890Z,26.01
2018-04-22T13:26:12.428Z,25.59
2018-04-22T13:28:40.000Z,26.21
2018-04-22T13:31:07.740Z,26.38
2018-04-22T13:33:35.281Z,25.99
2018-04-22T13:36:02.830Z,26.40
2018-04-22T13:38:30.558Z,26.68
2018-04-22T13:40:58.140Z,25.97
2018-04-22T13:43:25.696Z,26.19
2018-04-22T13:45:53.267Z,26.85
2018-04-22T13:48:20.835Z,26.51
2018-04-22T13:50:48.371Z,27.24
2018-04-22T13:53:16.090Z,27.08
2018-04-22T13:55:43.644Z,27.51
2018-04-22T13:58:11.257Z,27.53
2018-04-22T14:00:38.838Z,27.10
2018-04-22T14:03:06.416Z,27.66
2018-04-22T14:05:33.984Z,27.08
2018-04-22T14:08:01.717Z,27.43
2018-04-22T14:10:29.279Z,27.23
2018-04-22T14:12:56.856Z,27.07
2018-04-22T14:15:24.517Z,27.61
2018-04-22T14:17:52.073Z,27.70
2018-04-22T14:20:19.626Z,27.52
2018-04-22T14:22:47.203Z,27.34
2018-04-22T14:25:14.778Z,26.73
2018-04-22T14:27:42.344Z,26.94
2018-04-22T14:30:10.053Z,27.40
2018-04-22T14:32:37.596Z,27.74
2018-04-22T14:35:05.142Z,27.88
2018-04-22T14:37:32.742Z,27.23
2018-04-22T14:40:00.284Z,27.02
2018-04-22T14:42:27.832Z,27.23
2018-04-22T14:45:07.033Z,27.33
2018-04-22T14:47:34.588Z,27.63
2018-04-22T14:56:44.231Z,27.31
2018-04-22T14:59:11.783Z,27.11
2018-04-22T15:01:39.418Z,27.14
2018-04-22T15:04:07.186Z,26.62
2018-04-22T15:06:34.733Z,27.03
2018-04-22T15:09:02.271Z,26.90
2018-04-22T15:11:30.144Z,26.83
2018-04-22T15:13:57.685Z,27.21
2018-04-22T15:16:25.240Z,27.73
2018-04-22T15:18:52.805Z,27.68
2018-04-22T15:21:20.352Z,27.73
2018-04-22T15:23:47.917Z,27.05
2018-04-22T15:26:15.635Z,27.34
2018-04-22T15:28:43.236Z,27.17
2018-04-22T15:31:10.841Z,27.33
2018-04-22T15:33:38.399Z,27.64
2018-04-22T15:36:05.977Z,27.91
2018-04-22T15:38:33.516Z,27.90
2018-04-22T15:41:01.085Z,28.01
2018-04-22T15:43:28.633Z,28.30
2018-04-22T15:45:56.192Z,28.21
2018-04-22T15:48:23.771Z,29.08
2018-04-22T15:50:51.321Z,29.16
2018-04-22T15:53:18.860Z,28.73
2018-04-22T15:55:46.445Z,28.94
2018-04-22T15:58:14.001Z,29.06
2018-04-22T16:00:41.531Z,29.12
2018-04-22T16:03:09.111Z,29.86
2018-04-22T16:05:36.645Z,30.28
2018-04-22T16:08:04.210Z,30.17
2018-04-22T16:10:31.779Z,30.42
2018-04-22T16:12:59.322Z,30.64
2018-04-22T16:15:26.870Z,30.89
2018-04-22T16:17:54.603Z,30.25
2018-04-22T16:20:22.155Z,30.65
2018-04-22T16:22:49.718Z,30.97
2018-04-22T16:25:17.601Z,31.28
2018-04-22T16:27:45.196Z,31.78
2018-04-22T16:30:12.764Z,31.54
2018-04-22T16:32:40.322Z,31.63
2018-04-22T16:35:07.878Z,32.25
2018-04-22T16:37:35.422Z,32.62
2018-04-22T16:40:03.020Z,33.01
2018-04-22T16:42:30.580Z,32.86
2018-04-22T16:44:58.120Z,32.84
2018-04-22T16:47:25.952Z,32.67
2018-04-22T16:49:53.587Z,32.80
2018-04-22T16:52:21.142Z,32.73
2018-04-22T16:54:48.826Z,32.75
2018-04-22T16:57:16.371Z,32.54
2018-04-22T16:59:43.952Z,32.33
2018-04-22T17:02:11.698Z,32.84
2018-04-22T17:04:39.246Z,32.75
2018-04-22T17:07:06.841Z,33.15
2018-04-22T17:09:34.475Z,34.36
2018-04-22T17:12:02.041Z,34.72
2018-04-22T17:14:29.592Z,35.21
2018-04-22T17:16:57.156Z,35.99
2018-04-22T17:19:24.706Z,36.21
2018-04-22T17:21:52.261Z,35.81
2018-04-22T17:24:19.856Z,36.03
2018-04-22T17:26:47.428Z,36.31
2018-04-22T17:29:14.972Z,36.34
2018-04-22T17:31:42.553Z,36.43
2018-04-22T17:34:10.196Z,36.23
2018-04-22T17:36:37.738Z,36.15
2018-04-22T17:39:06.268Z,36.24
2018-04-22T17:48:16.068Z,36.07
2018-04-22T17:50:43.640Z,36.57
2018-04-22T17:53:11.229Z,35.98
2018-04-22T17:55:38.961Z,35.74
2018-04-22T17:58:06.552Z,35.19
2018-04-22T18:00:34.223Z,35.07
2018-04-22T18:03:01.846Z,34.93
2018-04-22T18:05:29.439Z,35.00
2018-04-22T18:07:56.993Z,35.09
2018-04-22T18:10:24.594Z,34.58
2018-04-22T18:12:52.185Z,34.52
2018-04-22T18:15:19.782Z,33.97
2018-04-22T18:17:47.663Z,34.51
2018-04-22T18:20:15.241Z,34.52
2018-04-22T18:22:42.800Z,34.57
2018-04-22T18:25:10.501Z,35.26
2018-04-22T18:27:38.089Z,33.81
2018-04-22T18:30:05.744Z,33.82
2018-04-22T18:32:33.640Z,33.06
2018-04-22T18:35:01.203Z,33.41
2018-04-22T18:37:28.786Z,33.16
2018-04-22T18:39:56.735Z,33.04
2018-04-22T18:42:24.297Z,33.11
2018-04-22T18:44:51.874Z,33.10
2018-04-22T18:47:19.808Z,33.74
2018-04-22T18:49:47.368Z,33.38
2018-04-22T18:52:14.903Z,33.61
2018-04-22T18:54:42.494Z,33.21
2018-04-22T18:57:10.046Z,33.21
2018-04-22T18:59:37.680Z,32.86
2018-04-22T19:02:05.637Z,32.81
2018-04-22T19:04:33.209Z,33.00
2018-04-22T19:07:00.853Z,33.52
2018-04-22T19:09:28.821Z,33.16
2018-04-22T19:11:56.373Z,33.09
2018-04-22T19:14:23.923Z,33.07
2018-04-22T19:16:51.677Z,33.45
2018-04-22T19:19:19.249Z,34.07
2018-04-22T19:21:46.823Z,33.93
2018-04-22T19:24:14.708Z,33.65
2018-04-22T19:26:42.267Z,34.02
2018-04-22T19:29:09.817Z,34.56
2018-04-22T19:31:37.490Z,33.81
2018-04-22T19:34:05.043Z,33.64
2018-04-22T19:36:32.596Z,34.51
2018-04-22T19:39:00.341Z,34.67
2018-04-22T19:41:27.937Z,34.60
2018-04-22T19:43:55.528Z,34.81
2018-04-22T19:46:23.462Z,35.14
2018-04-22T19:48:51.015Z,35.38
2018-04-22T19:51:18.564Z,35.21
2018-04-22T19:53:46.176Z,35.44
2018-04-22T19:56:13.722Z,36.10
2018-04-22T19:58:41.278Z,36.31
2018-04-22T20:01:08.859Z,36.20
2018-04-22T20:03:36.417Z,36.39
2018-04-22T20:06:03.982Z,36.72
2018-04-22T20:08:31.658Z,36.61
2018-04-22T20:10:59.243Z,36.77
2018-04-22T20:13:26.782Z,36.59
2018-04-22T20:15:54.686Z,37.03
2018-04-22T20:18:22.237Z,37.20
2018-04-22T20:20:49.785Z,37.58
2018-04-22T20:23:17.351Z,37.72
2018-04-22T20:25:44.904Z,37.66
2018-04-22T20:28:12.463Z,37.96
2018-04-22T20:30:40.074Z,38.11
2018-04-22T20:33:07.625Z,38.06
2018-04-22T20:35:35.214Z,37.99
2018-04-22T20:38:03.090Z,37.97
2018-04-22T20:40:30.641Z,38.22
2018-04-22T20:42:58.179Z,37.92
2018-04-22T20:45:25.917Z,38.17
2018-04-22T20:47:53.466Z,38.33
2018-04-22T20:50:21.012Z,38.25
2018-04-22T20:52:48.630Z,38.59
2018-04-22T20:55:16.193Z,38.45
2018-04-22T20:57:43.750Z,38.72
2018-04-22T21:00:11.328Z,39.56
2018-04-22T21:02:38.883Z,39.76
2018-04-22T21:05:06.439Z,39.83
2018-04-22T21:07:34.161Z,39.88
2018-04-22T21:10:01.708Z,39.75
2018-04-22T21:12:29.267Z,40.06
2018-04-22T21:14:57.045Z,40.26
2018-04-22T21:17:24.582Z,40.45
2018-04-22T21:19:52.135Z,40.36
2018-04-22T21:22:19.700Z,40.11
2018-04-22T21:24:47.240Z,39.84
2018-04-22T21:27:14.787Z,39.83
2018-04-22T21:29:42.357Z,39.55
2018-04-22T21:32:09.894Z,39.49
2018-04-22T21:34:37.439Z,39.78
2018-04-22T21:37:05.011Z,39.64
2018-04-22T21:39:32.547Z,39.48
2018-04-22T21:42:00.088Z,39.17
2018-04-22T21:44:27.637Z,38.35
2018-04-22T21:46:55.211Z,37.89
2018-04-22T21:49:22.926Z,37.76
2018-04-22T21:51:50.472Z,37.37
2018-04-22T21:54:18.014Z,37.14
2018-04-22T21:56:45.575Z,37.84
2018-04-22T21:59:13.148Z,38.49
2018-04-22T22:01:40.691Z,39.19
2018-04-22T22:04:08.550Z,39.64
2018-04-22T22:06:36.106Z,38.84
2018-04-22T22:09:03.716Z,40.00
2018-04-22T22:11:31.527Z,40.31
2018-04-22T22:13:59.070Z,40.67
2018-04-22T22:16:26.655Z,42.25
2018-04-22T22:18:54.529Z,42.46
2018-04-22T22:21:22.097Z,42.41
2018-04-22T22:23:49.651Z,42.72
2018-04-22T22:26:17.225Z,43.87
2018-04-22T22:28:44.763Z,44.40
2018-04-22T22:31:12.298Z,44.97
2018-04-22T22:33:39.857Z,46.02
2018-04-22T22:36:07.391Z,46.95
2018-04-22T22:38:34.932Z,47.07
2018-04-22T22:41:02.671Z,47.39
2018-04-22T22:43:30.243Z,47.68
2018-04-22T22:45:57.791Z,47.96
2018-04-22T22:48:25.470Z,47.59
2018-04-22T22:50:53.010Z,47.61
2018-04-22T22:53:20.556Z,48.35
2018-04-22T22:55:48.425Z,49.02
2018-04-22T22:58:15.965Z,48.61
2018-04-22T23:00:43.506Z,47.32
2018-04-22T23:03:11.087Z,46.67
2018-04-22T23:05:38.637Z,47.41
2018-04-22T23:08:06.183Z,46.55
2018-04-22T23:10:33.769Z,46.68
2018-04-22T23:13:01.330Z,47.45
2018-04-22T23:15:28.859Z,47.91
2018-04-22T23:17:56.723Z,48.90
2018-04-22T23:20:24.276Z,49.39
2018-04-22T23:22:51.815Z,48.51
2018-04-22T23:25:19.400Z,49.01
2018-04-22T23:27:46.956Z,48.39
2018-04-22T23:30:14.497Z,47.55
2018-04-22T23:32:42.069Z,48.57
2018-04-22T23:35:09.607Z,48.52
2018-04-22T23:37:37.160Z,48.65
2018-04-22T23:40:04.824Z,48.55
2018-04-22T23:42:32.395Z,48.85
2018-04-22T23:44:59.943Z,49.65
2018-04-22T23:47:27.807Z,51.04
2018-04-22T23:49:55.349Z,51.07
2018-04-22T23:52:22.926Z,51.15
2018-04-22T23:54:50.603Z,51.57
2018-04-22T23:57:18.148Z,51.63
2018-04-22T23:59:46.257Z,52.69
